Time;durP1;ratioP1;P1;durP2;ratioP2;P2;SDS_P1;SDS_P2;PMS_P1;PMS_P2;Temp;Humidity;BMP_temperature;BMP_pressure;BME280_temperature;BME280_humidity;BME280_pressure;Samples;Min_cycle;Max_cycle;Signal;HPM_P1;HPM_P2
2022/04/28 00:03:14;;;;;;;;;17.25;17.25;;;;;;;;6492444;46;8938;-63
2022/04/28 00:09:17;;;;;;;;;16.25;16.25;;;;;;;;6492050;46;8899;-62
2022/04/28 00:15:19;;;;;;;;;23.00;21.25;;;;;;;;6492524;39;8871;-62
2022/04/28 00:21:21;;;;;;;;;24.00;19.00;;;;;;;;6491863;31;8891;-62
2022/04/28 00:27:23;;;;;;;;;17.75;17.00;;;;;;;;6491827;46;8879;-63
2022/04/28 00:33:27;;;;;;;;;24.50;21.00;;;;;;;;6491261;31;9113;-63
2022/04/28 00:39:31;;;;;;;;;23.50;21.50;;;;;;;;6492357;31;9624;-62
2022/04/28 00:45:35;;;;;;;;;30.00;26.75;;;;;;;;6492520;39;8935;-63
2022/04/28 00:51:40;;;;;;;;;17.00;16.00;;;;;;;;6491395;46;8899;-63
2022/04/28 00:57:43;;;;;;;;;25.50;22.75;;;;;;;;6490843;39;8941;-63
2022/04/28 01:03:46;;;;;;;;;20.00;18.25;;;;;;;;6490987;46;8915;-63
2022/04/28 01:09:49;;;;;;;;;20.75;20.00;;;;;;;;6491376;39;8958;-62
2022/04/28 01:15:54;;;;;;;;;24.50;23.75;;;;;;;;6491972;39;8871;-63
2022/04/28 01:21:57;;;;;;;;;22.00;21.75;;;;;;;;6490898;39;8891;-63
2022/04/28 01:27:59;;;;;;;;;24.00;22.00;;;;;;;;6491443;31;8972;-63
2022/04/28 01:34:02;;;;;;;;;23.50;21.25;;;;;;;;6490285;31;8927;-62
2022/04/28 01:40:11;;;;;;;;;22.25;18.75;;;;;;;;6491205;46;8922;-64
2022/04/28 01:46:15;;;;;;;;;18.50;18.50;;;;;;;;6490697;46;8888;-63
2022/04/28 01:59:43;;;;;;;;;19.75;19.75;;;;;;;;6491448;31;9048;-65
2022/04/28 02:05:54;;;;;;;;;21.00;21.00;;;;;;;;6491727;39;8942;-63
2022/04/28 02:11:56;;;;;;;;;20.50;18.00;;;;;;;;6490644;39;9595;-62
2022/04/28 02:18:18;;;;;;;;;22.33;19.33;;;;;;;;6490863;36;8851;-62
2022/04/28 02:24:25;;;;;;;;;18.50;17.50;;;;;;;;6490834;39;8895;-62
2022/04/28 02:30:27;;;;;;;;;22.00;20.50;;;;;;;;6491106;39;9598;-63
2022/04/28 02:36:32;;;;;;;;;22.00;19.50;;;;;;;;6490460;46;8862;-63
2022/04/28 02:42:34;;;;;;;;;22.00;20.25;;;;;;;;6491399;39;8835;-63
2022/04/28 02:48:37;;;;;;;;;25.50;22.75;;;;;;;;6490013;31;8895;-64
2022/04/28 02:54:41;;;;;;;;;28.25;25.75;;;;;;;;6490802;39;9057;-63
2022/04/28 03:00:43;;;;;;;;;25.25;24.75;;;;;;;;6490916;39;8855;-63
2022/04/28 03:13:07;;;;;;;;;30.25;26.75;;;;;;;;6490023;31;8938;-63
2022/04/28 03:19:14;;;;;;;;;20.00;20.00;;;;;;;;6489671;31;8863;-62
2022/04/28 03:25:18;;;;;;;;;36.67;34.00;;;;;;;;6490238;39;8887;-63
2022/04/28 03:31:23;;;;;;;;;35.00;30.75;;;;;;;;6490913;39;8879;-62
2022/04/28 03:37:51;;;;;;;;;38.50;35.50;;;;;;;;6490282;39;8962;-63
2022/04/28 03:43:54;;;;;;;;;35.50;32.25;;;;;;;;6490171;31;8879;-63
2022/04/28 03:49:56;;;;;;;;;35.75;32.00;;;;;;;;6490207;46;8887;-64
2022/04/28 03:55:59;;;;;;;;;30.75;27.75;;;;;;;;6491828;46;8946;-61
2022/04/28 04:09:11;;;;;;;;;27.75;26.25;;;;;;;;6494255;39;9100;-58
2022/04/28 04:16:27;;;;;;;;;29.75;27.50;;;;;;;;6493484;39;8937;-58
2022/04/28 04:23:53;;;;;;;;;28.75;27.25;;;;;;;;6493673;31;9666;-59
2022/04/28 18:17:25;;;;;;;;;30.25;28.75;;;;;;;;6495517;39;9104;-61
2022/04/28 18:25:31;;;;;;;;;34.00;31.67;;;;;;;;6488797;46;8951;-60
2022/04/28 18:48:15;;;;;;;;;41.00;39.25;;;;;;;;6489426;31;8971;-60
2022/04/28 18:55:43;;;;;;;;;34.00;32.33;;;;;;;;6488601;47;9125;-59
2022/04/28 19:24:56;;;;;;;;;42.25;34.25;;;;;;;;6490333;31;8888;-59
2022/04/28 19:32:28;;;;;;;;;41.25;36.50;;;;;;;;6489919;46;8923;-59
2022/04/28 19:40:03;;;;;;;;;38.75;33.75;;;;;;;;6490810;46;8937;-59
2022/04/28 19:47:44;;;;;;;;;37.00;36.33;;;;;;;;6491093;39;9010;-59
2022/04/28 20:01:47;;;;;;;;;32.50;30.00;;;;;;;;6490486;39;9647;-61
2022/04/28 20:16:28;;;;;;;;;28.67;27.67;;;;;;;;6489633;39;8941;-60
2022/04/28 20:23:55;;;;;;;;;24.33;24.33;;;;;;;;6489721;31;9034;-59
2022/04/28 20:31:17;;;;;;;;;31.00;29.00;;;;;;;;6492343;39;9070;-60
2022/04/28 20:38:25;;;;;;;;;30.67;26.67;;;;;;;;6489263;46;8938;-59
2022/04/28 20:46:02;;;;;;;;;29.50;27.50;;;;;;;;6490290;31;8919;-60
2022/04/28 20:52:52;;;;;;;;;23.33;22.00;;;;;;;;6490226;46;9387;-60
2022/04/28 21:14:43;;;;;;;;;29.33;25.33;;;;;;;;6491298;39;9040;-58
2022/04/28 21:21:45;;;;;;;;;27.67;23.33;;;;;;;;6492488;31;8983;-58
2022/04/28 21:29:27;;;;;;;;;27.00;26.00;;;;;;;;6493402;31;9026;-60
2022/04/28 21:36:23;;;;;;;;;25.00;24.00;;;;;;;;6493322;46;8924;-60
2022/04/28 21:44:07;;;;;;;;;22.00;22.00;;;;;;;;6489736;39;9632;-60
2022/04/28 21:51:11;;;;;;;;;18.00;17.67;;;;;;;;6489338;39;9716;-59
2022/04/28 22:21:15;;;;;;;;;26.00;22.67;;;;;;;;6491589;39;8988;-60
2022/04/28 22:28:21;;;;;;;;;23.67;21.00;;;;;;;;6492894;46;8899;-60
2022/04/28 22:35:09;;;;;;;;;25.00;23.33;;;;;;;;6492213;46;8895;-59
2022/04/28 22:42:35;;;;;;;;;26.00;24.67;;;;;;;;6492257;39;8991;-60
2022/04/28 22:50:15;;;;;;;;;26.50;25.25;;;;;;;;6493101;46;8929;-59
2022/04/28 22:56:40;;;;;;;;;25.67;23.33;;;;;;;;6492175;31;9037;-60
2022/04/28 23:03:58;;;;;;;;;31.00;28.67;;;;;;;;6491907;47;8959;-58
2022/04/28 23:11:49;;;;;;;;;28.00;26.00;;;;;;;;6492214;47;8944;-59
2022/04/28 23:19:02;;;;;;;;;26.00;26.00;;;;;;;;6491881;46;9017;-60
2022/04/28 23:33:04;;;;;;;;;29.00;29.00;;;;;;;;6492296;39;8901;-60
2022/04/28 23:39:33;;;;;;;;;26.25;24.50;;;;;;;;6489469;39;8965;-60
2022/04/28 23:47:11;;;;;;;;;29.50;26.50;;;;;;;;6490616;39;8936;-59
